sensor_id;sensor_type;location;lat;lon;timestamp;P1;durP1;ratioP1;P2;durP2;ratioP2
56736;SDS011;42618;51.226;4.910;2023-07-24T00:04:52;3.45;;;1.75;;
56736;SDS011;42618;51.226;4.910;2023-07-24T00:07:20;2.40;;;1.63;;
56736;SDS011;42618;51.226;4.910;2023-07-24T00:09:46;4.38;;;1.90;;
56736;SDS011;42618;51.226;4.910;2023-07-24T00:12:14;8.18;;;2.47;;
56736;SDS011;42618;51.226;4.910;2023-07-24T00:14:40;3.38;;;1.90;;
56736;SDS011;42618;51.226;4.910;2023-07-24T00:17:07;6.55;;;2.22;;
56736;SDS011;42618;51.226;4.910;2023-07-24T00:19:34;6.63;;;2.20;;
56736;SDS011;42618;51.226;4.910;2023-07-24T00:22:01;4.45;;;2.30;;
56736;SDS011;42618;51.226;4.910;2023-07-24T00:24:29;8.93;;;2.60;;
56736;SDS011;42618;51.226;4.910;2023-07-24T00:26:56;7.38;;;2.15;;
56736;SDS011;42618;51.226;4.910;2023-07-24T00:29:23;5.35;;;2.63;;
56736;SDS011;42618;51.226;4.910;2023-07-24T00:31:50;7.50;;;2.58;;
56736;SDS011;42618;51.226;4.910;2023-07-24T00:34:16;6.97;;;2.78;;
56736;SDS011;42618;51.226;4.910;2023-07-24T00:36:43;5.80;;;2.20;;
56736;SDS011;42618;51.226;4.910;2023-07-24T00:39:10;5.85;;;2.53;;
56736;SDS011;42618;51.226;4.910;2023-07-24T00:41:37;9.30;;;2.90;;
56736;SDS011;42618;51.226;4.910;2023-07-24T00:44:04;8.35;;;3.10;;
56736;SDS011;42618;51.226;4.910;2023-07-24T00:46:30;6.28;;;2.50;;
56736;SDS011;42618;51.226;4.910;2023-07-24T00:49:00;5.30;;;3.08;;
56736;SDS011;42618;51.226;4.910;2023-07-24T00:51:30;6.88;;;3.22;;
56736;SDS011;42618;51.226;4.910;2023-07-24T00:54:00;11.23;;;3.25;;
56736;SDS011;42618;51.226;4.910;2023-07-24T00:56:28;8.45;;;2.95;;
56736;SDS011;42618;51.226;4.910;2023-07-24T00:58:57;5.75;;;2.95;;
56736;SDS011;42618;51.226;4.910;2023-07-24T01:01:25;8.40;;;3.17;;
56736;SDS011;42618;51.226;4.910;2023-07-24T01:03:52;9.20;;;3.60;;
56736;SDS011;42618;51.226;4.910;2023-07-24T01:06:19;7.93;;;3.15;;
56736;SDS011;42618;51.226;4.910;2023-07-24T01:08:46;7.47;;;3.63;;
56736;SDS011;42618;51.226;4.910;2023-07-24T01:11:18;7.13;;;2.93;;
56736;SDS011;42618;51.226;4.910;2023-07-24T01:13:56;5.47;;;3.03;;
56736;SDS011;42618;51.226;4.910;2023-07-24T01:16:26;10.27;;;3.83;;
56736;SDS011;42618;51.226;4.910;2023-07-24T01:18:59;7.88;;;3.40;;
56736;SDS011;42618;51.226;4.910;2023-07-24T01:21:33;7.30;;;3.80;;
56736;SDS011;42618;51.226;4.910;2023-07-24T01:26:50;5.97;;;3.17;;
56736;SDS011;42618;51.226;4.910;2023-07-24T01:29:17;7.50;;;3.45;;
56736;SDS011;42618;51.226;4.910;2023-07-24T01:31:44;6.32;;;2.90;;
56736;SDS011;42618;51.226;4.910;2023-07-24T01:34:12;8.60;;;3.13;;
56736;SDS011;42618;51.226;4.910;2023-07-24T01:36:39;7.43;;;3.00;;
56736;SDS011;42618;51.226;4.910;2023-07-24T01:39:06;7.45;;;3.40;;
56736;SDS011;42618;51.226;4.910;2023-07-24T01:44:00;4.93;;;2.80;;
56736;SDS011;42618;51.226;4.910;2023-07-24T01:46:27;7.50;;;3.55;;
56736;SDS011;42618;51.226;4.910;2023-07-24T01:48:54;7.03;;;3.22;;
56736;SDS011;42618;51.226;4.910;2023-07-24T01:51:21;6.78;;;3.30;;
56736;SDS011;42618;51.226;4.910;2023-07-24T01:53:48;6.60;;;3.33;;
56736;SDS011;42618;51.226;4.910;2023-07-24T01:56:14;8.07;;;3.40;;
56736;SDS011;42618;51.226;4.910;2023-07-24T01:58:41;7.78;;;3.60;;
56736;SDS011;42618;51.226;4.910;2023-07-24T02:01:08;8.70;;;3.15;;
56736;SDS011;42618;51.226;4.910;2023-07-24T02:03:35;7.72;;;3.53;;
56736;SDS011;42618;51.226;4.910;2023-07-24T02:06:03;11.05;;;2.78;;
56736;SDS011;42618;51.226;4.910;2023-07-24T02:08:30;7.07;;;2.73;;
56736;SDS011;42618;51.226;4.910;2023-07-24T02:10:56;12.55;;;2.42;;
56736;SDS011;42618;51.226;4.910;2023-07-24T02:13:24;4.47;;;2.20;;
56736;SDS011;42618;51.226;4.910;2023-07-24T02:15:51;4.57;;;1.63;;
56736;SDS011;42618;51.226;4.910;2023-07-24T02:18:20;2.83;;;1.65;;
56736;SDS011;42618;51.226;4.910;2023-07-24T02:20:49;2.15;;;1.58;;
56736;SDS011;42618;51.226;4.910;2023-07-24T02:23:17;2.25;;;1.20;;
56736;SDS011;42618;51.226;4.910;2023-07-24T02:25:44;2.60;;;1.27;;
56736;SDS011;42618;51.226;4.910;2023-07-24T02:28:10;2.08;;;1.33;;
56736;SDS011;42618;51.226;4.910;2023-07-24T02:30:38;7.07;;;1.60;;
56736;SDS011;42618;51.226;4.910;2023-07-24T02:33:06;5.05;;;1.30;;
56736;SDS011;42618;51.226;4.910;2023-07-24T02:35:42;3.50;;;1.20;;
56736;SDS011;42618;51.226;4.910;2023-07-24T02:38:09;4.00;;;1.42;;
56736;SDS011;42618;51.226;4.910;2023-07-24T02:40:40;2.17;;;1.40;;
56736;SDS011;42618;51.226;4.910;2023-07-24T02:43:07;1.90;;;1.48;;
56736;SDS011;42618;51.226;4.910;2023-07-24T02:45:34;2.35;;;1.42;;
56736;SDS011;42618;51.226;4.910;2023-07-24T02:48:01;2.85;;;1.30;;
56736;SDS011;42618;51.226;4.910;2023-07-24T02:52:56;2.28;;;1.27;;
56736;SDS011;42618;51.226;4.910;2023-07-24T02:55:22;2.60;;;1.40;;
56736;SDS011;42618;51.226;4.910;2023-07-24T02:57:49;2.85;;;1.17;;
56736;SDS011;42618;51.226;4.910;2023-07-24T03:00:17;2.72;;;1.50;;
56736;SDS011;42618;51.226;4.910;2023-07-24T03:02:43;3.28;;;1.25;;
56736;SDS011;42618;51.226;4.910;2023-07-24T03:05:10;2.88;;;1.67;;
56736;SDS011;42618;51.226;4.910;2023-07-24T03:07:38;1.98;;;1.50;;
56736;SDS011;42618;51.226;4.910;2023-07-24T03:10:05;4.13;;;2.05;;
56736;SDS011;42618;51.226;4.910;2023-07-24T03:12:32;2.87;;;1.47;;
56736;SDS011;42618;51.226;4.910;2023-07-24T03:14:58;3.22;;;1.77;;
56736;SDS011;42618;51.226;4.910;2023-07-24T03:17:25;3.90;;;1.67;;
56736;SDS011;42618;51.226;4.910;2023-07-24T03:19:53;2.13;;;1.40;;
56736;SDS011;42618;51.226;4.910;2023-07-24T03:22:20;4.20;;;1.33;;
56736;SDS011;42618;51.226;4.910;2023-07-24T03:24:47;2.25;;;1.58;;
56736;SDS011;42618;51.226;4.910;2023-07-24T03:27:14;2.15;;;1.42;;
56736;SDS011;42618;51.226;4.910;2023-07-24T03:29:41;2.05;;;1.45;;
56736;SDS011;42618;51.226;4.910;2023-07-24T03:32:07;3.35;;;1.52;;
56736;SDS011;42618;51.226;4.910;2023-07-24T03:34:34;7.00;;;1.95;;
56736;SDS011;42618;51.226;4.910;2023-07-24T03:37:01;4.43;;;1.85;;
56736;SDS011;42618;51.226;4.910;2023-07-24T03:39:29;2.65;;;1.77;;
56736;SDS011;42618;51.226;4.910;2023-07-24T03:41:56;3.60;;;2.00;;
56736;SDS011;42618;51.226;4.910;2023-07-24T03:44:23;2.40;;;1.60;;
56736;SDS011;42618;51.226;4.910;2023-07-24T03:46:50;1.83;;;1.58;;
56736;SDS011;42618;51.226;4.910;2023-07-24T03:49:16;3.65;;;1.80;;
56736;SDS011;42618;51.226;4.910;2023-07-24T03:51:43;4.03;;;1.70;;
56736;SDS011;42618;51.226;4.910;2023-07-24T03:54:10;2.30;;;1.65;;
56736;SDS011;42618;51.226;4.910;2023-07-24T03:56:36;3.42;;;1.70;;
56736;SDS011;42618;51.226;4.910;2023-07-24T03:59:03;1.75;;;1.40;;
56736;SDS011;42618;51.226;4.910;2023-07-24T04:01:31;1.80;;;1.50;;
56736;SDS011;42618;51.226;4.910;2023-07-24T04:03:58;2.50;;;1.50;;
56736;SDS011;42618;51.226;4.910;2023-07-24T04:06:25;6.30;;;3.00;;
56736;SDS011;42618;51.226;4.910;2023-07-24T04:08:52;1.77;;;1.00;;
56736;SDS011;42618;51.226;4.910;2023-07-24T04:11:19;2.05;;;0.95;;
56736;SDS011;42618;51.226;4.910;2023-07-24T04:13:46;3.92;;;1.30;;
56736;SDS011;42618;51.226;4.910;2023-07-24T04:16:12;2.65;;;1.00;;
56736;SDS011;42618;51.226;4.910;2023-07-24T04:18:39;2.30;;;1.20;;
56736;SDS011;42618;51.226;4.910;2023-07-24T04:21:06;2.70;;;1.20;;
56736;SDS011;42618;51.226;4.910;2023-07-24T04:23:32;1.67;;;1.20;;
56736;SDS011;42618;51.226;4.910;2023-07-24T04:25:59;2.45;;;1.17;;
56736;SDS011;42618;51.226;4.910;2023-07-24T04:28:26;3.78;;;1.50;;
56736;SDS011;42618;51.226;4.910;2023-07-24T04:30:52;1.63;;;1.10;;
56736;SDS011;42618;51.226;4.910;2023-07-24T04:33:19;2.00;;;0.95;;
56736;SDS011;42618;51.226;4.910;2023-07-24T04:35:49;2.63;;;1.10;;
56736;SDS011;42618;51.226;4.910;2023-07-24T04:38:16;2.05;;;1.33;;
56736;SDS011;42618;51.226;4.910;2023-07-24T04:40:45;3.15;;;1.17;;
56736;SDS011;42618;51.226;4.910;2023-07-24T04:43:12;2.83;;;0.98;;
56736;SDS011;42618;51.226;4.910;2023-07-24T04:45:39;1.95;;;1.30;;
56736;SDS011;42618;51.226;4.910;2023-07-24T04:48:06;1.60;;;1.10;;
56736;SDS011;42618;51.226;4.910;2023-07-24T04:50:33;1.60;;;1.07;;
56736;SDS011;42618;51.226;4.910;2023-07-24T04:53:00;1.88;;;1.15;;
56736;SDS011;42618;51.226;4.910;2023-07-24T04:55:26;1.20;;;0.93;;
56736;SDS011;42618;51.226;4.910;2023-07-24T04:57:53;1.55;;;1.17;;
56736;SDS011;42618;51.226;4.910;2023-07-24T05:00:20;1.10;;;0.70;;
56736;SDS011;42618;51.226;4.910;2023-07-24T05:02:47;0.90;;;0.65;;
56736;SDS011;42618;51.226;4.910;2023-07-24T05:05:13;2.63;;;0.88;;
56736;SDS011;42618;51.226;4.910;2023-07-24T05:07:40;1.10;;;1.00;;
56736;SDS011;42618;51.226;4.910;2023-07-24T05:10:07;1.58;;;0.98;;
56736;SDS011;42618;51.226;4.910;2023-07-24T05:12:34;4.03;;;1.10;;
56736;SDS011;42618;51.226;4.910;2023-07-24T05:15:01;2.00;;;1.10;;
56736;SDS011;42618;51.226;4.910;2023-07-24T05:17:28;2.03;;;1.20;;
56736;SDS011;42618;51.226;4.910;2023-07-24T05:19:55;2.08;;;0.95;;
56736;SDS011;42618;51.226;4.910;2023-07-24T05:22:22;1.52;;;0.98;;
56736;SDS011;42618;51.226;4.910;2023-07-24T05:24:48;2.53;;;1.27;;
56736;SDS011;42618;51.226;4.910;2023-07-24T05:27:15;4.38;;;1.42;;
56736;SDS011;42618;51.226;4.910;2023-07-24T05:29:42;2.70;;;1.17;;
56736;SDS011;42618;51.226;4.910;2023-07-24T05:32:09;3.45;;;1.30;;
56736;SDS011;42618;51.226;4.910;2023-07-24T05:34:36;1.58;;;1.17;;
56736;SDS011;42618;51.226;4.910;2023-07-24T05:37:03;2.38;;;1.23;;
56736;SDS011;42618;51.226;4.910;2023-07-24T05:39:31;2.80;;;1.52;;
56736;SDS011;42618;51.226;4.910;2023-07-24T05:41:58;3.55;;;1.27;;
56736;SDS011;42618;51.226;4.910;2023-07-24T05:44:24;2.30;;;1.30;;
56736;SDS011;42618;51.226;4.910;2023-07-24T05:46:51;2.22;;;1.30;;
56736;SDS011;42618;51.226;4.910;2023-07-24T05:49:18;3.90;;;1.77;;
56736;SDS011;42618;51.226;4.910;2023-07-24T05:51:45;3.42;;;1.48;;
56736;SDS011;42618;51.226;4.910;2023-07-24T05:54:11;3.15;;;1.60;;
56736;SDS011;42618;51.226;4.910;2023-07-24T05:56:38;3.15;;;1.60;;
56736;SDS011;42618;51.226;4.910;2023-07-24T06:01:32;2.10;;;1.20;;
56736;SDS011;42618;51.226;4.910;2023-07-24T06:03:59;2.45;;;1.30;;
56736;SDS011;42618;51.226;4.910;2023-07-24T06:06:26;2.20;;;1.48;;
56736;SDS011;42618;51.226;4.910;2023-07-24T06:08:55;2.90;;;1.67;;
56736;SDS011;42618;51.226;4.910;2023-07-24T06:11:21;3.47;;;1.52;;
56736;SDS011;42618;51.226;4.910;2023-07-24T06:13:49;2.00;;;1.50;;
56736;SDS011;42618;51.226;4.910;2023-07-24T06:16:16;2.20;;;1.50;;
56736;SDS011;42618;51.226;4.910;2023-07-24T06:18:43;3.38;;;1.13;;
56736;SDS011;42618;51.226;4.910;2023-07-24T06:21:09;2.05;;;1.23;;
56736;SDS011;42618;51.226;4.910;2023-07-24T06:23:36;1.95;;;0.93;;
56736;SDS011;42618;51.226;4.910;2023-07-24T06:26:03;1.38;;;1.00;;
56736;SDS011;42618;51.226;4.910;2023-07-24T06:28:29;0.98;;;0.85;;
56736;SDS011;42618;51.226;4.910;2023-07-24T06:30:58;1.45;;;1.05;;
56736;SDS011;42618;51.226;4.910;2023-07-24T06:33:25;1.77;;;1.20;;
56736;SDS011;42618;51.226;4.910;2023-07-24T06:35:51;4.63;;;1.40;;
56736;SDS011;42618;51.226;4.910;2023-07-24T06:38:18;3.85;;;1.20;;
56736;SDS011;42618;51.226;4.910;2023-07-24T06:40:47;3.25;;;1.40;;
56736;SDS011;42618;51.226;4.910;2023-07-24T06:43:14;2.92;;;1.27;;
56736;SDS011;42618;51.226;4.910;2023-07-24T06:45:41;2.70;;;1.58;;
56736;SDS011;42618;51.226;4.910;2023-07-24T06:48:07;3.97;;;1.67;;
56736;SDS011;42618;51.226;4.910;2023-07-24T06:50:34;2.92;;;1.67;;
56736;SDS011;42618;51.226;4.910;2023-07-24T06:53:01;3.67;;;1.55;;
56736;SDS011;42618;51.226;4.910;2023-07-24T06:55:28;3.38;;;1.60;;
56736;SDS011;42618;51.226;4.910;2023-07-24T06:57:54;3.08;;;1.52;;
56736;SDS011;42618;51.226;4.910;2023-07-24T07:00:21;2.63;;;1.30;;
56736;SDS011;42618;51.226;4.910;2023-07-24T07:02:48;3.40;;;1.73;;
56736;SDS011;42618;51.226;4.910;2023-07-24T07:05:14;2.53;;;1.42;;
56736;SDS011;42618;51.226;4.910;2023-07-24T07:07:41;2.53;;;1.42;;
56736;SDS011;42618;51.226;4.910;2023-07-24T07:10:08;2.08;;;1.48;;
56736;SDS011;42618;51.226;4.910;2023-07-24T07:12:35;3.90;;;1.90;;
56736;SDS011;42618;51.226;4.910;2023-07-24T07:15:02;3.40;;;1.80;;
56736;SDS011;42618;51.226;4.910;2023-07-24T07:17:29;3.77;;;1.43;;
56736;SDS011;42618;51.226;4.910;2023-07-24T07:19:55;5.15;;;1.98;;
56736;SDS011;42618;51.226;4.910;2023-07-24T07:22:23;4.07;;;2.13;;
56736;SDS011;42618;51.226;4.910;2023-07-24T07:24:50;3.63;;;1.95;;
56736;SDS011;42618;51.226;4.910;2023-07-24T07:27:17;5.57;;;2.30;;
56736;SDS011;42618;51.226;4.910;2023-07-24T07:29:44;2.08;;;1.63;;
56736;SDS011;42618;51.226;4.910;2023-07-24T07:32:11;6.82;;;1.88;;
56736;SDS011;42618;51.226;4.910;2023-07-24T07:34:37;3.90;;;2.28;;
56736;SDS011;42618;51.226;4.910;2023-07-24T07:37:05;8.07;;;2.10;;
56736;SDS011;42618;51.226;4.910;2023-07-24T07:39:32;4.45;;;1.88;;
56736;SDS011;42618;51.226;4.910;2023-07-24T07:42:00;6.07;;;2.90;;
56736;SDS011;42618;51.226;4.910;2023-07-24T07:44:33;2.08;;;1.35;;
56736;SDS011;42618;51.226;4.910;2023-07-24T07:46:59;2.97;;;2.38;;
56736;SDS011;42618;51.226;4.910;2023-07-24T07:49:26;2.63;;;1.70;;
56736;SDS011;42618;51.226;4.910;2023-07-24T07:51:56;1.90;;;1.23;;
56736;SDS011;42618;51.226;4.910;2023-07-24T07:54:23;3.50;;;1.85;;
56736;SDS011;42618;51.226;4.910;2023-07-24T07:56:50;3.47;;;1.95;;
56736;SDS011;42618;51.226;4.910;2023-07-24T07:59:16;2.35;;;1.60;;
56736;SDS011;42618;51.226;4.910;2023-07-24T08:01:43;2.35;;;1.50;;
56736;SDS011;42618;51.226;4.910;2023-07-24T08:04:11;4.55;;;2.05;;
56736;SDS011;42618;51.226;4.910;2023-07-24T08:06:38;1.87;;;1.50;;
56736;SDS011;42618;51.226;4.910;2023-07-24T08:09:05;6.05;;;2.10;;
56736;SDS011;42618;51.226;4.910;2023-07-24T08:11:32;4.28;;;2.17;;
56736;SDS011;42618;51.226;4.910;2023-07-24T08:13:58;3.95;;;1.90;;
56736;SDS011;42618;51.226;4.910;2023-07-24T08:16:25;4.15;;;1.70;;
56736;SDS011;42618;51.226;4.910;2023-07-24T08:18:52;2.15;;;1.15;;
56736;SDS011;42618;51.226;4.910;2023-07-24T08:21:20;2.63;;;1.73;;
56736;SDS011;42618;51.226;4.910;2023-07-24T08:23:47;3.17;;;1.83;;
56736;SDS011;42618;51.226;4.910;2023-07-24T08:26:14;2.83;;;1.95;;
56736;SDS011;42618;51.226;4.910;2023-07-24T08:28:40;3.88;;;2.00;;
56736;SDS011;42618;51.226;4.910;2023-07-24T08:31:08;3.28;;;2.22;;
56736;SDS011;42618;51.226;4.910;2023-07-24T08:33:36;4.10;;;1.70;;
56736;SDS011;42618;51.226;4.910;2023-07-24T08:36:03;5.93;;;2.00;;
56736;SDS011;42618;51.226;4.910;2023-07-24T08:38:33;3.40;;;1.95;;
56736;SDS011;42618;51.226;4.910;2023-07-24T08:41:04;1.80;;;1.23;;
56736;SDS011;42618;51.226;4.910;2023-07-24T08:43:32;3.88;;;2.00;;
56736;SDS011;42618;51.226;4.910;2023-07-24T08:46:00;2.78;;;2.10;;
56736;SDS011;42618;51.226;4.910;2023-07-24T08:48:35;6.75;;;2.40;;
56736;SDS011;42618;51.226;4.910;2023-07-24T08:51:07;3.17;;;1.90;;
56736;SDS011;42618;51.226;4.910;2023-07-24T08:53:40;13.43;;;6.47;;
56736;SDS011;42618;51.226;4.910;2023-07-24T08:56:08;2.00;;;1.80;;
56736;SDS011;42618;51.226;4.910;2023-07-24T08:58:36;2.05;;;1.80;;
56736;SDS011;42618;51.226;4.910;2023-07-24T09:01:03;3.80;;;1.75;;
56736;SDS011;42618;51.226;4.910;2023-07-24T09:03:31;3.15;;;1.65;;
56736;SDS011;42618;51.226;4.910;2023-07-24T09:05:59;2.20;;;2.00;;
56736;SDS011;42618;51.226;4.910;2023-07-24T09:08:38;3.60;;;2.03;;
56736;SDS011;42618;51.226;4.910;2023-07-24T09:11:07;5.63;;;2.10;;
56736;SDS011;42618;51.226;4.910;2023-07-24T09:13:35;3.20;;;2.30;;
56736;SDS011;42618;51.226;4.910;2023-07-24T09:16:03;3.47;;;1.98;;
56736;SDS011;42618;51.226;4.910;2023-07-24T09:18:40;2.38;;;1.98;;
56736;SDS011;42618;51.226;4.910;2023-07-24T09:21:08;2.22;;;1.63;;
56736;SDS011;42618;51.226;4.910;2023-07-24T09:23:36;2.33;;;1.90;;
56736;SDS011;42618;51.226;4.910;2023-07-24T09:26:06;2.75;;;1.80;;
56736;SDS011;42618;51.226;4.910;2023-07-24T09:28:34;3.05;;;2.00;;
56736;SDS011;42618;51.226;4.910;2023-07-24T09:31:01;3.03;;;1.65;;
56736;SDS011;42618;51.226;4.910;2023-07-24T09:33:38;3.58;;;1.80;;
56736;SDS011;42618;51.226;4.910;2023-07-24T09:36:07;2.50;;;1.77;;
56736;SDS011;42618;51.226;4.910;2023-07-24T09:38:35;2.92;;;1.92;;
56736;SDS011;42618;51.226;4.910;2023-07-24T09:41:02;2.58;;;2.05;;
56736;SDS011;42618;51.226;4.910;2023-07-24T09:43:30;4.10;;;2.58;;
56736;SDS011;42618;51.226;4.910;2023-07-24T09:46:01;5.32;;;2.03;;
56736;SDS011;42618;51.226;4.910;2023-07-24T09:48:30;3.45;;;2.00;;
56736;SDS011;42618;51.226;4.910;2023-07-24T09:51:01;2.92;;;2.00;;
56736;SDS011;42618;51.226;4.910;2023-07-24T09:55:59;1.98;;;1.77;;
56736;SDS011;42618;51.226;4.910;2023-07-24T09:58:27;4.00;;;1.70;;
56736;SDS011;42618;51.226;4.910;2023-07-24T10:00:55;3.53;;;2.28;;
56736;SDS011;42618;51.226;4.910;2023-07-24T10:03:23;3.90;;;2.17;;
56736;SDS011;42618;51.226;4.910;2023-07-24T10:05:52;3.60;;;1.98;;
56736;SDS011;42618;51.226;4.910;2023-07-24T10:08:20;12.68;;;7.47;;
56736;SDS011;42618;51.226;4.910;2023-07-24T10:10:47;7.13;;;4.90;;
56736;SDS011;42618;51.226;4.910;2023-07-24T10:13:17;2.72;;;1.90;;
56736;SDS011;42618;51.226;4.910;2023-07-24T10:15:45;1.60;;;1.50;;
56736;SDS011;42618;51.226;4.910;2023-07-24T10:18:14;2.05;;;1.48;;
56736;SDS011;42618;51.226;4.910;2023-07-24T10:20:42;1.95;;;1.67;;
56736;SDS011;42618;51.226;4.910;2023-07-24T10:23:09;2.25;;;1.73;;
56736;SDS011;42618;51.226;4.910;2023-07-24T10:25:43;2.10;;;1.90;;
56736;SDS011;42618;51.226;4.910;2023-07-24T10:28:12;2.40;;;1.52;;
56736;SDS011;42618;51.226;4.910;2023-07-24T10:30:42;7.93;;;1.92;;
56736;SDS011;42618;51.226;4.910;2023-07-24T10:33:11;2.45;;;1.80;;
56736;SDS011;42618;51.226;4.910;2023-07-24T10:35:43;2.60;;;2.00;;
56736;SDS011;42618;51.226;4.910;2023-07-24T10:38:13;2.30;;;1.70;;
56736;SDS011;42618;51.226;4.910;2023-07-24T10:40:44;2.47;;;1.70;;
56736;SDS011;42618;51.226;4.910;2023-07-24T10:43:13;2.42;;;2.10;;
56736;SDS011;42618;51.226;4.910;2023-07-24T10:48:18;2.10;;;1.27;;
56736;SDS011;42618;51.226;4.910;2023-07-24T10:50:51;3.28;;;1.60;;
56736;SDS011;42618;51.226;4.910;2023-07-24T10:53:21;2.03;;;1.60;;
56736;SDS011;42618;51.226;4.910;2023-07-24T10:55:49;2.72;;;1.40;;
56736;SDS011;42618;51.226;4.910;2023-07-24T10:58:17;1.95;;;1.30;;
56736;SDS011;42618;51.226;4.910;2023-07-24T11:00:44;2.03;;;1.38;;
56736;SDS011;42618;51.226;4.910;2023-07-24T11:03:11;8.15;;;5.03;;
56736;SDS011;42618;51.226;4.910;2023-07-24T11:05:41;4.25;;;1.60;;
56736;SDS011;42618;51.226;4.910;2023-07-24T11:08:13;3.88;;;1.85;;
56736;SDS011;42618;51.226;4.910;2023-07-24T11:10:50;4.07;;;1.43;;
56736;SDS011;42618;51.226;4.910;2023-07-24T11:13:19;3.58;;;1.85;;
56736;SDS011;42618;51.226;4.910;2023-07-24T11:15:48;2.97;;;1.80;;
56736;SDS011;42618;51.226;4.910;2023-07-24T11:18:16;3.60;;;2.10;;
56736;SDS011;42618;51.226;4.910;2023-07-24T11:20:44;2.63;;;1.65;;
56736;SDS011;42618;51.226;4.910;2023-07-24T11:23:18;2.30;;;1.52;;
56736;SDS011;42618;51.226;4.910;2023-07-24T11:25:46;3.75;;;1.65;;
56736;SDS011;42618;51.226;4.910;2023-07-24T11:28:13;5.50;;;2.03;;
56736;SDS011;42618;51.226;4.910;2023-07-24T11:30:41;3.00;;;1.42;;
56736;SDS011;42618;51.226;4.910;2023-07-24T11:33:09;3.10;;;1.90;;
56736;SDS011;42618;51.226;4.910;2023-07-24T11:35:42;2.97;;;1.77;;
56736;SDS011;42618;51.226;4.910;2023-07-24T11:38:09;2.33;;;1.70;;
56736;SDS011;42618;51.226;4.910;2023-07-24T11:40:37;1.80;;;1.50;;
56736;SDS011;42618;51.226;4.910;2023-07-24T11:43:14;1.98;;;1.50;;
56736;SDS011;42618;51.226;4.910;2023-07-24T11:45:43;2.22;;;1.90;;
56736;SDS011;42618;51.226;4.910;2023-07-24T11:48:11;4.00;;;2.05;;
56736;SDS011;42618;51.226;4.910;2023-07-24T11:50:45;3.97;;;2.17;;
56736;SDS011;42618;51.226;4.910;2023-07-24T11:55:51;4.88;;;2.17;;
56736;SDS011;42618;51.226;4.910;2023-07-24T11:58:22;4.93;;;2.33;;
56736;SDS011;42618;51.226;4.910;2023-07-24T12:00:52;2.90;;;2.25;;
56736;SDS011;42618;51.226;4.910;2023-07-24T12:03:24;4.87;;;2.40;;
56736;SDS011;42618;51.226;4.910;2023-07-24T12:05:52;2.97;;;2.40;;
56736;SDS011;42618;51.226;4.910;2023-07-24T12:08:34;3.05;;;2.13;;
56736;SDS011;42618;51.226;4.910;2023-07-24T12:11:02;8.30;;;1.98;;
56736;SDS011;42618;51.226;4.910;2023-07-24T12:13:29;3.33;;;2.10;;
56736;SDS011;42618;51.226;4.910;2023-07-24T12:15:57;3.08;;;1.77;;
56736;SDS011;42618;51.226;4.910;2023-07-24T12:18:24;3.53;;;2.10;;
56736;SDS011;42618;51.226;4.910;2023-07-24T12:20:51;2.78;;;2.30;;
56736;SDS011;42618;51.226;4.910;2023-07-24T12:23:18;2.90;;;2.05;;
56736;SDS011;42618;51.226;4.910;2023-07-24T12:25:44;3.10;;;2.15;;
56736;SDS011;42618;51.226;4.910;2023-07-24T12:28:11;4.57;;;2.05;;
56736;SDS011;42618;51.226;4.910;2023-07-24T12:30:38;2.30;;;1.80;;
56736;SDS011;42618;51.226;4.910;2023-07-24T12:33:05;2.67;;;1.90;;
56736;SDS011;42618;51.226;4.910;2023-07-24T12:35:32;6.30;;;2.60;;
56736;SDS011;42618;51.226;4.910;2023-07-24T12:37:59;4.07;;;2.30;;
56736;SDS011;42618;51.226;4.910;2023-07-24T12:40:25;2.60;;;2.10;;
56736;SDS011;42618;51.226;4.910;2023-07-24T12:42:52;2.17;;;1.80;;
56736;SDS011;42618;51.226;4.910;2023-07-24T12:45:19;3.28;;;2.53;;
56736;SDS011;42618;51.226;4.910;2023-07-24T12:47:46;4.80;;;2.67;;
56736;SDS011;42618;51.226;4.910;2023-07-24T12:50:13;2.73;;;2.30;;
56736;SDS011;42618;51.226;4.910;2023-07-24T12:52:40;3.08;;;2.47;;
56736;SDS011;42618;51.226;4.910;2023-07-24T12:55:07;7.50;;;2.55;;
56736;SDS011;42618;51.226;4.910;2023-07-24T12:57:34;5.22;;;3.00;;
56736;SDS011;42618;51.226;4.910;2023-07-24T13:00:01;6.00;;;3.50;;
56736;SDS011;42618;51.226;4.910;2023-07-24T13:02:28;4.18;;;2.90;;
56736;SDS011;42618;51.226;4.910;2023-07-24T13:04:55;5.55;;;3.10;;
56736;SDS011;42618;51.226;4.910;2023-07-24T13:07:21;4.15;;;2.80;;
56736;SDS011;42618;51.226;4.910;2023-07-24T13:09:48;3.37;;;2.57;;
56736;SDS011;42618;51.226;4.910;2023-07-24T13:12:15;5.93;;;2.25;;
56736;SDS011;42618;51.226;4.910;2023-07-24T13:14:42;4.25;;;1.95;;
56736;SDS011;42618;51.226;4.910;2023-07-24T13:17:09;4.65;;;2.63;;
56736;SDS011;42618;51.226;4.910;2023-07-24T13:19:36;5.35;;;3.30;;
56736;SDS011;42618;51.226;4.910;2023-07-24T13:22:03;7.00;;;2.45;;
56736;SDS011;42618;51.226;4.910;2023-07-24T13:24:30;6.50;;;2.42;;
56736;SDS011;42618;51.226;4.910;2023-07-24T13:26:57;4.03;;;1.98;;
56736;SDS011;42618;51.226;4.910;2023-07-24T13:29:23;3.88;;;2.53;;
56736;SDS011;42618;51.226;4.910;2023-07-24T13:31:52;7.82;;;2.50;;
56736;SDS011;42618;51.226;4.910;2023-07-24T13:34:19;6.05;;;2.88;;
56736;SDS011;42618;51.226;4.910;2023-07-24T13:39:13;5.43;;;2.95;;
56736;SDS011;42618;51.226;4.910;2023-07-24T13:41:41;7.45;;;3.33;;
56736;SDS011;42618;51.226;4.910;2023-07-24T13:44:08;4.82;;;3.45;;
56736;SDS011;42618;51.226;4.910;2023-07-24T13:46:35;4.70;;;3.25;;
56736;SDS011;42618;51.226;4.910;2023-07-24T13:49:05;8.05;;;4.10;;
56736;SDS011;42618;51.226;4.910;2023-07-24T13:51:32;10.38;;;5.55;;
56736;SDS011;42618;51.226;4.910;2023-07-24T13:53:59;6.18;;;3.95;;
56736;SDS011;42618;51.226;4.910;2023-07-24T13:56:28;3.85;;;2.85;;
56736;SDS011;42618;51.226;4.910;2023-07-24T13:58:57;4.57;;;2.75;;
56736;SDS011;42618;51.226;4.910;2023-07-24T14:01:24;3.80;;;2.50;;
56736;SDS011;42618;51.226;4.910;2023-07-24T14:03:51;4.95;;;2.88;;
56736;SDS011;42618;51.226;4.910;2023-07-24T14:06:18;5.32;;;3.47;;
56736;SDS011;42618;51.226;4.910;2023-07-24T14:08:45;5.45;;;3.75;;
56736;SDS011;42618;51.226;4.910;2023-07-24T14:11:12;6.68;;;4.45;;
56736;SDS011;42618;51.226;4.910;2023-07-24T14:13:38;5.50;;;4.15;;
56736;SDS011;42618;51.226;4.910;2023-07-24T14:16:05;10.00;;;4.18;;
56736;SDS011;42618;51.226;4.910;2023-07-24T14:18:32;6.13;;;3.78;;
56736;SDS011;42618;51.226;4.910;2023-07-24T14:20:58;7.13;;;3.83;;
56736;SDS011;42618;51.226;4.910;2023-07-24T14:23:26;7.13;;;4.05;;
56736;SDS011;42618;51.226;4.910;2023-07-24T14:25:52;6.07;;;4.18;;
56736;SDS011;42618;51.226;4.910;2023-07-24T14:28:19;5.40;;;3.70;;
56736;SDS011;42618;51.226;4.910;2023-07-24T14:30:46;3.40;;;2.28;;
56736;SDS011;42618;51.226;4.910;2023-07-24T14:33:13;5.65;;;2.10;;
56736;SDS011;42618;51.226;4.910;2023-07-24T14:35:40;3.15;;;2.42;;
56736;SDS011;42618;51.226;4.910;2023-07-24T14:38:07;5.47;;;2.78;;
56736;SDS011;42618;51.226;4.910;2023-07-24T14:40:34;6.22;;;3.35;;
56736;SDS011;42618;51.226;4.910;2023-07-24T14:43:00;4.72;;;3.13;;
56736;SDS011;42618;51.226;4.910;2023-07-24T14:45:32;3.85;;;2.45;;
56736;SDS011;42618;51.226;4.910;2023-07-24T14:47:59;5.03;;;3.53;;
56736;SDS011;42618;51.226;4.910;2023-07-24T14:50:26;8.47;;;3.80;;
56736;SDS011;42618;51.226;4.910;2023-07-24T14:52:53;5.95;;;3.85;;
56736;SDS011;42618;51.226;4.910;2023-07-24T14:55:20;6.20;;;4.22;;
56736;SDS011;42618;51.226;4.910;2023-07-24T14:57:46;7.53;;;4.25;;
56736;SDS011;42618;51.226;4.910;2023-07-24T15:00:14;6.32;;;4.28;;
56736;SDS011;42618;51.226;4.910;2023-07-24T15:02:42;6.13;;;4.30;;
56736;SDS011;42618;51.226;4.910;2023-07-24T15:05:10;5.65;;;3.45;;
56736;SDS011;42618;51.226;4.910;2023-07-24T15:07:36;5.93;;;3.95;;
56736;SDS011;42618;51.226;4.910;2023-07-24T15:10:04;7.32;;;4.70;;
56736;SDS011;42618;51.226;4.910;2023-07-24T15:14:58;6.13;;;4.25;;
56736;SDS011;42618;51.226;4.910;2023-07-24T15:17:25;7.88;;;3.83;;